sensor_id;sensor_type;location;lat;lon;timestamp;pressure;altitude;pressure_sealevel;temperature;humidity
79075;BME280;68476;42.710;23.388;2023-07-31T00:01:52;95225.28;;;19.85;70.67
79075;BME280;68476;42.710;23.388;2023-07-31T00:04:17;95226.34;;;19.90;70.78
79075;BME280;68476;42.710;23.388;2023-07-31T00:06:42;95223.88;;;19.88;70.53
79075;BME280;68476;42.710;23.388;2023-07-31T00:09:08;95232.50;;;19.81;70.87
79075;BME280;68476;42.710;23.388;2023-07-31T00:11:33;95225.91;;;19.77;71.15
79075;BME280;68476;42.710;23.388;2023-07-31T00:13:59;95221.00;;;19.74;71.42
79075;BME280;68476;42.710;23.388;2023-07-31T00:16:24;95217.69;;;19.72;71.49
79075;BME280;68476;42.710;23.388;2023-07-31T00:18:49;95218.38;;;19.64;72.17
79075;BME280;68476;42.710;23.388;2023-07-31T00:21:15;95218.38;;;19.64;71.92
79075;BME280;68476;42.710;23.388;2023-07-31T00:23:40;95213.97;;;19.63;72.62
79075;BME280;68476;42.710;23.388;2023-07-31T00:26:05;95218.38;;;19.64;72.83
79075;BME280;68476;42.710;23.388;2023-07-31T00:28:31;95218.94;;;19.61;72.97
79075;BME280;68476;42.710;23.388;2023-07-31T00:30:56;95212.84;;;19.64;72.38
79075;BME280;68476;42.710;23.388;2023-07-31T00:33:21;95207.06;;;19.60;72.76
79075;BME280;68476;42.710;23.388;2023-07-31T00:35:48;95187.19;;;19.58;72.96
79075;BME280;68476;42.710;23.388;2023-07-31T00:38:13;95186.16;;;19.54;73.30
79075;BME280;68476;42.710;23.388;2023-07-31T00:40:39;95168.28;;;19.46;73.40
79075;BME280;68476;42.710;23.388;2023-07-31T00:43:04;95166.09;;;19.43;74.38
79075;BME280;68476;42.710;23.388;2023-07-31T00:45:30;95175.63;;;19.32;75.00
79075;BME280;68476;42.710;23.388;2023-07-31T00:47:56;95175.22;;;19.19;75.00
79075;BME280;68476;42.710;23.388;2023-07-31T00:50:24;95185.69;;;19.22;75.83
79075;BME280;68476;42.710;23.388;2023-07-31T00:52:50;95194.63;;;19.14;76.36
79075;BME280;68476;42.710;23.388;2023-07-31T00:55:15;95189.38;;;19.13;76.68
79075;BME280;68476;42.710;23.388;2023-07-31T00:57:41;95184.16;;;19.11;76.17
79075;BME280;68476;42.710;23.388;2023-07-31T01:00:07;95185.56;;;19.08;76.79
79075;BME280;68476;42.710;23.388;2023-07-31T01:02:33;95177.22;;;19.14;77.23
79075;BME280;68476;42.710;23.388;2023-07-31T01:05:00;95179.81;;;19.05;76.90
79075;BME280;68476;42.710;23.388;2023-07-31T01:07:52;95178.97;;;19.04;77.35
79075;BME280;68476;42.710;23.388;2023-07-31T01:10:34;95172.69;;;18.99;78.34
79075;BME280;68476;42.710;23.388;2023-07-31T01:13:03;95183.19;;;18.97;78.14
79075;BME280;68476;42.710;23.388;2023-07-31T01:15:28;95178.53;;;18.92;78.45
79075;BME280;68476;42.710;23.388;2023-07-31T01:17:54;95173.63;;;18.84;79.04
79075;BME280;68476;42.710;23.388;2023-07-31T01:20:23;95163.72;;;18.83;78.67
79075;BME280;68476;42.710;23.388;2023-07-31T01:25:59;95171.25;;;18.72;79.99
79075;BME280;68476;42.710;23.388;2023-07-31T01:31:07;95169.13;;;18.63;80.99
79075;BME280;68476;42.710;23.388;2023-07-31T01:33:33;95158.13;;;18.58;81.04
79075;BME280;68476;42.710;23.388;2023-07-31T01:36:00;95157.63;;;18.56;81.86
79075;BME280;68476;42.710;23.388;2023-07-31T01:38:26;95161.53;;;18.50;82.02
79075;BME280;68476;42.710;23.388;2023-07-31T01:40:52;95162.09;;;18.47;82.10
79075;BME280;68476;42.710;23.388;2023-07-31T01:43:18;95166.00;;;18.46;82.58
79075;BME280;68476;42.710;23.388;2023-07-31T01:45:44;95166.00;;;18.46;82.85
79075;BME280;68476;42.710;23.388;2023-07-31T01:48:09;95164.91;;;18.42;82.69
79075;BME280;68476;42.710;23.388;2023-07-31T01:50:34;95166.84;;;18.41;82.54
79075;BME280;68476;42.710;23.388;2023-07-31T01:53:00;95167.44;;;18.38;82.88
79075;BME280;68476;42.710;23.388;2023-07-31T01:55:25;95170.47;;;18.37;83.38
79075;BME280;68476;42.710;23.388;2023-07-31T01:57:51;95178.78;;;18.31;84.06
79075;BME280;68476;42.710;23.388;2023-07-31T02:00:17;95173.03;;;18.28;84.09
79075;BME280;68476;42.710;23.388;2023-07-31T02:02:43;95183.22;;;18.27;83.62
79075;BME280;68476;42.710;23.388;2023-07-31T02:05:08;95186.28;;;18.26;83.93
79075;BME280;68476;42.710;23.388;2023-07-31T02:07:34;95183.00;;;18.24;84.64
79075;BME280;68476;42.710;23.388;2023-07-31T02:09:59;95180.53;;;18.22;85.11
79075;BME280;68476;42.710;23.388;2023-07-31T02:12:24;95177.50;;;18.18;85.14
79075;BME280;68476;42.710;23.388;2023-07-31T02:14:50;95180.56;;;18.12;85.42
79075;BME280;68476;42.710;23.388;2023-07-31T02:17:15;95192.75;;;18.06;85.53
79075;BME280;68476;42.710;23.388;2023-07-31T02:19:40;95198.06;;;17.97;86.18
79075;BME280;68476;42.710;23.388;2023-07-31T02:22:06;95192.56;;;17.92;86.27
79075;BME280;68476;42.710;23.388;2023-07-31T02:24:31;95193.38;;;17.92;86.56
79075;BME280;68476;42.710;23.388;2023-07-31T02:26:57;95190.13;;;17.85;87.42
79075;BME280;68476;42.710;23.388;2023-07-31T02:29:22;95190.66;;;17.87;87.43
79075;BME280;68476;42.710;23.388;2023-07-31T02:31:48;95193.38;;;17.92;87.37
79075;BME280;68476;42.710;23.388;2023-07-31T02:34:13;95190.06;;;17.90;87.29
79075;BME280;68476;42.710;23.388;2023-07-31T02:36:39;95185.94;;;17.93;87.14
79075;BME280;68476;42.710;23.388;2023-07-31T02:39:04;95190.63;;;17.97;87.36
79075;BME280;68476;42.710;23.388;2023-07-31T02:41:30;95187.56;;;17.99;87.11
79075;BME280;68476;42.710;23.388;2023-07-31T02:43:55;95199.38;;;18.10;86.75
79075;BME280;68476;42.710;23.388;2023-07-31T02:46:20;95191.03;;;18.15;87.17
79075;BME280;68476;42.710;23.388;2023-07-31T02:48:49;95189.13;;;18.15;86.74
79075;BME280;68476;42.710;23.388;2023-07-31T02:51:14;95193.19;;;18.23;86.37
79075;BME280;68476;42.710;23.388;2023-07-31T02:53:40;95205.28;;;18.27;86.26
79075;BME280;68476;42.710;23.388;2023-07-31T02:56:05;95206.13;;;18.28;86.40
79075;BME280;68476;42.710;23.388;2023-07-31T02:58:31;95204.16;;;18.33;86.20
79075;BME280;68476;42.710;23.388;2023-07-31T03:00:58;95212.38;;;18.39;86.30
79075;BME280;68476;42.710;23.388;2023-07-31T03:03:23;95214.03;;;18.40;86.25
79075;BME280;68476;42.710;23.388;2023-07-31T03:05:49;95215.34;;;18.47;85.85
79075;BME280;68476;42.710;23.388;2023-07-31T03:08:14;95210.38;;;18.50;86.07
79075;BME280;68476;42.710;23.388;2023-07-31T03:10:40;95213.13;;;18.50;85.94
79075;BME280;68476;42.710;23.388;2023-07-31T03:13:06;95207.53;;;18.60;85.64
79075;BME280;68476;42.710;23.388;2023-07-31T03:15:32;95217.16;;;18.62;85.32
79075;BME280;68476;42.710;23.388;2023-07-31T03:17:57;95213.75;;;18.71;85.54
79075;BME280;68476;42.710;23.388;2023-07-31T03:20:23;95219.22;;;18.81;84.91
79075;BME280;68476;42.710;23.388;2023-07-31T03:22:48;95213.69;;;18.81;85.21
79075;BME280;68476;42.710;23.388;2023-07-31T03:25:13;95213.16;;;18.79;85.37
79075;BME280;68476;42.710;23.388;2023-07-31T03:27:39;95211.50;;;18.78;84.67
79075;BME280;68476;42.710;23.388;2023-07-31T03:30:05;95215.09;;;18.78;84.65
79075;BME280;68476;42.710;23.388;2023-07-31T03:32:31;95218.38;;;18.81;85.33
79075;BME280;68476;42.710;23.388;2023-07-31T03:34:57;95214.50;;;18.82;84.42
79075;BME280;68476;42.710;23.388;2023-07-31T03:37:22;95226.66;;;18.81;85.25
79075;BME280;68476;42.710;23.388;2023-07-31T03:39:48;95222.56;;;18.78;85.61
79075;BME280;68476;42.710;23.388;2023-07-31T03:42:13;95221.16;;;18.81;84.83
79075;BME280;68476;42.710;23.388;2023-07-31T03:44:38;95220.22;;;18.90;84.95
79075;BME280;68476;42.710;23.388;2023-07-31T03:47:04;95229.44;;;18.81;84.74
79075;BME280;68476;42.710;23.388;2023-07-31T03:49:30;95228.00;;;18.83;84.91
79075;BME280;68476;42.710;23.388;2023-07-31T03:51:55;95230.16;;;18.91;84.51
79075;BME280;68476;42.710;23.388;2023-07-31T03:54:21;95232.09;;;18.96;83.79
79075;BME280;68476;42.710;23.388;2023-07-31T03:56:46;95240.56;;;19.05;83.32
79075;BME280;68476;42.710;23.388;2023-07-31T03:59:12;95239.38;;;19.11;82.96
79075;BME280;68476;42.710;23.388;2023-07-31T04:01:37;95236.59;;;19.16;82.25
79075;BME280;68476;42.710;23.388;2023-07-31T04:04:02;95234.88;;;19.20;82.38
79075;BME280;68476;42.710;23.388;2023-07-31T04:06:28;95247.78;;;19.25;82.28
79075;BME280;68476;42.710;23.388;2023-07-31T04:08:53;95242.16;;;19.35;81.65
79075;BME280;68476;42.710;23.388;2023-07-31T04:11:19;95242.47;;;19.34;81.43
79075;BME280;68476;42.710;23.388;2023-07-31T04:13:44;95249.88;;;19.38;80.98
79075;BME280;68476;42.710;23.388;2023-07-31T04:16:09;95250.44;;;19.35;81.30
79075;BME280;68476;42.710;23.388;2023-07-31T04:18:35;95252.16;;;19.31;81.30
79075;BME280;68476;42.710;23.388;2023-07-31T04:21:00;95248.53;;;19.36;80.53
79075;BME280;68476;42.710;23.388;2023-07-31T04:23:27;95241.88;;;19.37;80.96
79075;BME280;68476;42.710;23.388;2023-07-31T04:25:53;95252.88;;;19.42;80.46
79075;BME280;68476;42.710;23.388;2023-07-31T04:28:18;95251.53;;;19.39;81.26
79075;BME280;68476;42.710;23.388;2023-07-31T04:30:44;95250.72;;;19.39;80.84
79075;BME280;68476;42.710;23.388;2023-07-31T04:33:09;95255.00;;;19.50;80.01
79075;BME280;68476;42.710;23.388;2023-07-31T04:35:34;95248.94;;;19.48;80.00
79075;BME280;68476;42.710;23.388;2023-07-31T04:38:00;95253.88;;;19.51;80.21
79075;BME280;68476;42.710;23.388;2023-07-31T04:40:25;95260.47;;;19.55;79.59
79075;BME280;68476;42.710;23.388;2023-07-31T04:42:51;95247.81;;;19.49;79.66
79075;BME280;68476;42.710;23.388;2023-07-31T04:45:16;95255.88;;;19.46;79.62
79075;BME280;68476;42.710;23.388;2023-07-31T04:47:42;95254.25;;;19.45;79.83
79075;BME280;68476;42.710;23.388;2023-07-31T04:50:07;95247.59;;;19.46;79.71
79075;BME280;68476;42.710;23.388;2023-07-31T04:52:33;95250.59;;;19.49;79.93
79075;BME280;68476;42.710;23.388;2023-07-31T04:54:58;95248.38;;;19.51;79.96
79075;BME280;68476;42.710;23.388;2023-07-31T04:57:24;95253.06;;;19.51;79.23
79075;BME280;68476;42.710;23.388;2023-07-31T04:59:49;95257.28;;;19.43;79.76
79075;BME280;68476;42.710;23.388;2023-07-31T05:02:15;95253.50;;;19.58;78.85
79075;BME280;68476;42.710;23.388;2023-07-31T05:04:40;95246.72;;;19.50;78.78
79075;BME280;68476;42.710;23.388;2023-07-31T05:07:05;95247.75;;;19.54;79.20
79075;BME280;68476;42.710;23.388;2023-07-31T05:09:31;95246.88;;;19.59;78.62
79075;BME280;68476;42.710;23.388;2023-07-31T05:11:56;95255.00;;;19.50;79.16
79075;BME280;68476;42.710;23.388;2023-07-31T05:14:23;95248.38;;;19.51;78.97
79075;BME280;68476;42.710;23.388;2023-07-31T05:16:48;95253.88;;;19.76;77.87
79075;BME280;68476;42.710;23.388;2023-07-31T05:19:13;95259.78;;;19.93;77.40
79075;BME280;68476;42.710;23.388;2023-07-31T05:21:39;95254.09;;;20.42;75.52
79075;BME280;68476;42.710;23.388;2023-07-31T05:24:05;95241.19;;;20.70;73.93
79075;BME280;68476;42.710;23.388;2023-07-31T05:26:30;95237.69;;;20.84;73.13
79075;BME280;68476;42.710;23.388;2023-07-31T05:28:56;95242.94;;;20.66;73.25
79075;BME280;68476;42.710;23.388;2023-07-31T05:31:21;95246.31;;;20.82;72.35
79075;BME280;68476;42.710;23.388;2023-07-31T05:33:47;95236.97;;;20.78;72.14
79075;BME280;68476;42.710;23.388;2023-07-31T05:36:15;95248.19;;;20.87;71.76
79075;BME280;68476;42.710;23.388;2023-07-31T05:38:40;95242.91;;;21.04;70.36
79075;BME280;68476;42.710;23.388;2023-07-31T05:41:05;95247.63;;;21.18;70.27
79075;BME280;68476;42.710;23.388;2023-07-31T05:43:31;95246.63;;;21.14;70.50
79075;BME280;68476;42.710;23.388;2023-07-31T05:45:56;95250.31;;;21.09;70.87
79075;BME280;68476;42.710;23.388;2023-07-31T05:48:21;95243.84;;;21.14;70.43
79075;BME280;68476;42.710;23.388;2023-07-31T05:50:47;95240.63;;;21.06;70.50
79075;BME280;68476;42.710;23.388;2023-07-31T05:53:12;95246.91;;;21.12;70.13
79075;BME280;68476;42.710;23.388;2023-07-31T05:55:38;95246.91;;;21.59;68.85
79075;BME280;68476;42.710;23.388;2023-07-31T05:58:03;95240.53;;;21.73;67.44
79075;BME280;68476;42.710;23.388;2023-07-31T06:00:29;95253.06;;;21.84;66.31
79075;BME280;68476;42.710;23.388;2023-07-31T06:02:54;95256.91;;;21.55;66.55
79075;BME280;68476;42.710;23.388;2023-07-31T06:05:19;95250.50;;;21.74;66.25
79075;BME280;68476;42.710;23.388;2023-07-31T06:07:45;95254.66;;;21.57;66.02
79075;BME280;68476;42.710;23.388;2023-07-31T06:10:12;95251.75;;;21.20;66.82
79075;BME280;68476;42.710;23.388;2023-07-31T06:12:38;95252.84;;;21.05;67.22
79075;BME280;68476;42.710;23.388;2023-07-31T06:15:04;95255.13;;;21.17;67.24
79075;BME280;68476;42.710;23.388;2023-07-31T06:17:30;95241.94;;;21.42;66.36
79075;BME280;68476;42.710;23.388;2023-07-31T06:19:56;95255.94;;;21.18;66.18
79075;BME280;68476;42.710;23.388;2023-07-31T06:22:21;95253.53;;;20.97;67.15
79075;BME280;68476;42.710;23.388;2023-07-31T06:24:47;95254.75;;;20.91;67.31
79075;BME280;68476;42.710;23.388;2023-07-31T06:27:12;95240.69;;;21.34;66.39
79075;BME280;68476;42.710;23.388;2023-07-31T06:29:38;95252.44;;;21.73;64.12
79075;BME280;68476;42.710;23.388;2023-07-31T06:32:03;95251.84;;;21.62;64.49
79075;BME280;68476;42.710;23.388;2023-07-31T06:34:29;95253.69;;;21.67;63.90
79075;BME280;68476;42.710;23.388;2023-07-31T06:36:55;95254.03;;;21.32;65.06
79075;BME280;68476;42.710;23.388;2023-07-31T06:39:21;95253.47;;;21.16;65.71
79075;BME280;68476;42.710;23.388;2023-07-31T06:41:46;95249.91;;;20.83;66.47
79075;BME280;68476;42.710;23.388;2023-07-31T06:44:12;95242.28;;;21.07;65.49
79075;BME280;68476;42.710;23.388;2023-07-31T06:46:37;95251.88;;;20.96;65.50
79075;BME280;68476;42.710;23.388;2023-07-31T06:49:03;95258.75;;;21.32;64.58
79075;BME280;68476;42.710;23.388;2023-07-31T06:51:28;95259.56;;;21.32;65.06
79075;BME280;68476;42.710;23.388;2023-07-31T06:53:53;95248.00;;;21.44;64.30
79075;BME280;68476;42.710;23.388;2023-07-31T06:56:21;95252.03;;;21.80;62.90
79075;BME280;68476;42.710;23.388;2023-07-31T06:58:46;95256.84;;;21.88;62.17
79075;BME280;68476;42.710;23.388;2023-07-31T07:01:11;95262.84;;;21.34;63.34
79075;BME280;68476;42.710;23.388;2023-07-31T07:03:37;95243.97;;;21.36;62.67
79075;BME280;68476;42.710;23.388;2023-07-31T07:06:02;95257.91;;;21.17;63.77
79075;BME280;68476;42.710;23.388;2023-07-31T07:08:27;95252.13;;;21.61;62.41
79075;BME280;68476;42.710;23.388;2023-07-31T07:10:53;95250.91;;;21.67;62.13
79075;BME280;68476;42.710;23.388;2023-07-31T07:13:19;95244.44;;;21.72;61.16
79075;BME280;68476;42.710;23.388;2023-07-31T07:15:48;95251.56;;;21.45;62.26
79075;BME280;68476;42.710;23.388;2023-07-31T07:18:14;95258.19;;;21.77;61.84
79075;BME280;68476;42.710;23.388;2023-07-31T07:20:39;95253.03;;;21.56;62.20
79075;BME280;68476;42.710;23.388;2023-07-31T07:23:05;95262.94;;;21.76;61.89
79075;BME280;68476;42.710;23.388;2023-07-31T07:25:30;95257.56;;;21.80;61.13
79075;BME280;68476;42.710;23.388;2023-07-31T07:27:56;95252.13;;;22.02;60.48
79075;BME280;68476;42.710;23.388;2023-07-31T07:30:21;95255.47;;;22.27;59.91
79075;BME280;68476;42.710;23.388;2023-07-31T07:32:47;95249.47;;;22.48;59.09
79075;BME280;68476;42.710;23.388;2023-07-31T07:35:13;95256.09;;;22.24;59.44
79075;BME280;68476;42.710;23.388;2023-07-31T07:37:38;95251.66;;;22.74;58.55
79075;BME280;68476;42.710;23.388;2023-07-31T07:40:04;95256.75;;;22.58;57.98
79075;BME280;68476;42.710;23.388;2023-07-31T07:42:30;95250.44;;;22.66;57.58
79075;BME280;68476;42.710;23.388;2023-07-31T07:44:55;95246.59;;;22.99;57.38
79075;BME280;68476;42.710;23.388;2023-07-31T07:47:21;95255.00;;;23.07;57.07
79075;BME280;68476;42.710;23.388;2023-07-31T07:49:46;95253.34;;;23.06;56.82
79075;BME280;68476;42.710;23.388;2023-07-31T07:52:12;95263.00;;;22.63;56.74
79075;BME280;68476;42.710;23.388;2023-07-31T07:54:37;95248.50;;;23.12;56.06
79075;BME280;68476;42.710;23.388;2023-07-31T07:57:03;95247.84;;;23.69;53.85
79075;BME280;68476;42.710;23.388;2023-07-31T07:59:28;95252.38;;;23.97;52.83
79075;BME280;68476;42.710;23.388;2023-07-31T08:01:53;95261.59;;;23.75;52.95
79075;BME280;68476;42.710;23.388;2023-07-31T08:04:19;95257.06;;;23.47;53.66
79075;BME280;68476;42.710;23.388;2023-07-31T08:06:44;95246.06;;;23.42;54.07
79075;BME280;68476;42.710;23.388;2023-07-31T08:09:10;95248.94;;;24.09;52.77
79075;BME280;68476;42.710;23.388;2023-07-31T08:11:35;95249.13;;;23.32;54.50
79075;BME280;68476;42.710;23.388;2023-07-31T08:14:01;95249.03;;;23.46;53.32
79075;BME280;68476;42.710;23.388;2023-07-31T08:16:26;95250.50;;;23.83;52.83
79075;BME280;68476;42.710;23.388;2023-07-31T08:18:52;95248.66;;;23.70;52.83
79075;BME280;68476;42.710;23.388;2023-07-31T08:21:17;95246.75;;;23.48;52.57
79075;BME280;68476;42.710;23.388;2023-07-31T08:23:43;95259.47;;;23.80;52.01
79075;BME280;68476;42.710;23.388;2023-07-31T08:26:18;95252.63;;;24.44;50.21
79075;BME280;68476;42.710;23.388;2023-07-31T08:28:44;95265.16;;;23.98;50.75
79075;BME280;68476;42.710;23.388;2023-07-31T08:31:09;95253.59;;;23.82;51.17
79075;BME280;68476;42.710;23.388;2023-07-31T08:33:35;95256.25;;;24.54;49.78
79075;BME280;68476;42.710;23.388;2023-07-31T08:36:01;95257.59;;;24.74;49.03
79075;BME280;68476;42.710;23.388;2023-07-31T08:38:26;95253.59;;;24.49;49.31
79075;BME280;68476;42.710;23.388;2023-07-31T08:40:56;95245.09;;;24.54;49.08
79075;BME280;68476;42.710;23.388;2023-07-31T08:43:25;95242.47;;;25.10;48.13
79075;BME280;68476;42.710;23.388;2023-07-31T08:45:51;95244.63;;;25.04;47.95
79075;BME280;68476;42.710;23.388;2023-07-31T08:48:17;95253.38;;;25.59;46.84
79075;BME280;68476;42.710;23.388;2023-07-31T08:50:43;95247.66;;;25.38;46.71
79075;BME280;68476;42.710;23.388;2023-07-31T08:53:08;95247.06;;;25.06;47.42
79075;BME280;68476;42.710;23.388;2023-07-31T08:55:35;95238.56;;;24.85;48.33
79075;BME280;68476;42.710;23.388;2023-07-31T08:58:03;95245.09;;;25.06;47.86
79075;BME280;68476;42.710;23.388;2023-07-31T09:00:29;95238.97;;;25.39;47.17
79075;BME280;68476;42.710;23.388;2023-07-31T09:03:02;95237.91;;;24.97;47.86
79075;BME280;68476;42.710;23.388;2023-07-31T09:05:29;95234.75;;;25.72;45.83
79075;BME280;68476;42.710;23.388;2023-07-31T09:07:55;95246.09;;;25.02;47.63
79075;BME280;68476;42.710;23.388;2023-07-31T09:10:21;95225.41;;;24.59;47.88
79075;BME280;68476;42.710;23.388;2023-07-31T09:12:48;95236.81;;;25.54;45.89
79075;BME280;68476;42.710;23.388;2023-07-31T09:15:14;95235.75;;;24.67;47.78
79075;BME280;68476;42.710;23.388;2023-07-31T09:17:40;95237.38;;;24.51;47.85
79075;BME280;68476;42.710;23.388;2023-07-31T09:20:15;95238.19;;;25.21;46.10
79075;BME280;68476;42.710;23.388;2023-07-31T09:22:41;95236.22;;;25.13;46.35
79075;BME280;68476;42.710;23.388;2023-07-31T09:25:18;95241.78;;;25.31;45.95
79075;BME280;68476;42.710;23.388;2023-07-31T09:27:57;95231.34;;;25.66;45.02
79075;BME280;68476;42.710;23.388;2023-07-31T09:30:22;95225.72;;;26.14;44.27
79075;BME280;68476;42.710;23.388;2023-07-31T09:32:49;95225.47;;;25.59;45.62
79075;BME280;68476;42.710;23.388;2023-07-31T09:35:27;95217.34;;;25.19;46.49
79075;BME280;68476;42.710;23.388;2023-07-31T09:37:55;95215.06;;;25.12;46.58
79075;BME280;68476;42.710;23.388;2023-07-31T09:42:51;95213.06;;;25.30;46.41
79075;BME280;68476;42.710;23.388;2023-07-31T09:45:18;95217.72;;;25.65;44.83
79075;BME280;68476;42.710;23.388;2023-07-31T09:47:47;95212.06;;;25.44;45.51
79075;BME280;68476;42.710;23.388;2023-07-31T09:50:15;95215.28;;;25.63;44.76
79075;BME280;68476;42.710;23.388;2023-07-31T09:52:41;95205.03;;;25.29;45.59
79075;BME280;68476;42.710;23.388;2023-07-31T09:55:08;95220.34;;;25.14;46.04
79075;BME280;68476;42.710;23.388;2023-07-31T09:57:38;95214.41;;;25.72;44.71
79075;BME280;68476;42.710;23.388;2023-07-31T10:00:05;95208.97;;;25.45;44.82
79075;BME280;68476;42.710;23.388;2023-07-31T10:02:31;95204.78;;;25.60;44.41
79075;BME280;68476;42.710;23.388;2023-07-31T10:05:02;95201.78;;;25.65;44.24
79075;BME280;68476;42.710;23.388;2023-07-31T10:07:30;95217.28;;;25.54;44.54
79075;BME280;68476;42.710;23.388;2023-07-31T10:10:00;95211.25;;;25.43;44.09
79075;BME280;68476;42.710;23.388;2023-07-31T10:12:26;95205.94;;;25.89;43.23
79075;BME280;68476;42.710;23.388;2023-07-31T10:14:56;95199.31;;;26.03;41.76
79075;BME280;68476;42.710;23.388;2023-07-31T10:17:22;95207.94;;;26.19;41.74
79075;BME280;68476;42.710;23.388;2023-07-31T10:19:49;95203.53;;;26.39;40.52
79075;BME280;68476;42.710;23.388;2023-07-31T10:22:15;95194.97;;;27.20;39.13
79075;BME280;68476;42.710;23.388;2023-07-31T10:24:42;95195.53;;;27.13;39.91
79075;BME280;68476;42.710;23.388;2023-07-31T10:27:08;95199.66;;;26.01;41.56
79075;BME280;68476;42.710;23.388;2023-07-31T10:29:35;95201.91;;;26.08;41.95
79075;BME280;68476;42.710;23.388;2023-07-31T10:32:02;95203.06;;;26.07;42.02
79075;BME280;68476;42.710;23.388;2023-07-31T10:34:35;95204.03;;;25.81;41.94
79075;BME280;68476;42.710;23.388;2023-07-31T10:37:40;95189.47;;;28.19;37.33
79075;BME280;68476;42.710;23.388;2023-07-31T10:40:10;95184.09;;;29.68;33.72
79075;BME280;68476;42.710;23.388;2023-07-31T10:42:52;95186.91;;;29.24;34.42
79075;BME280;68476;42.710;23.388;2023-07-31T10:45:44;95177.56;;;29.64;33.98
79075;BME280;68476;42.710;23.388;2023-07-31T10:48:14;95177.16;;;28.36;36.39
79075;BME280;68476;42.710;23.388;2023-07-31T10:50:51;95170.44;;;28.25;36.77
79075;BME280;68476;42.710;23.388;2023-07-31T10:53:30;95172.66;;;27.45;38.47
79075;BME280;68476;42.710;23.388;2023-07-31T10:56:04;95183.34;;;26.97;39.15
79075;BME280;68476;42.710;23.388;2023-07-31T10:58:30;95174.50;;;26.52;40.38
79075;BME280;68476;42.710;23.388;2023-07-31T11:00:59;95173.16;;;31.26;31.73
79075;BME280;68476;42.710;23.388;2023-07-31T11:03:26;95172.00;;;32.50;29.32
79075;BME280;68476;42.710;23.388;2023-07-31T11:06:10;95162.69;;;34.38;26.29
79075;BME280;68476;42.710;23.388;2023-07-31T11:08:45;95170.31;;;33.82;26.84
79075;BME280;68476;42.710;23.388;2023-07-31T11:11:13;95150.38;;;34.09;25.96
79075;BME280;68476;42.710;23.388;2023-07-31T11:16:22;95161.06;;;31.05;30.37
79075;BME280;68476;42.710;23.388;2023-07-31T11:18:48;95155.28;;;27.51;36.34
79075;BME280;68476;42.710;23.388;2023-07-31T11:21:14;95158.22;;;27.67;36.35
79075;BME280;68476;42.710;23.388;2023-07-31T11:23:41;95150.41;;;28.51;34.57
79075;BME280;68476;42.710;23.388;2023-07-31T11:26:07;95149.38;;;32.47;28.74
79075;BME280;68476;42.710;23.388;2023-07-31T11:28:34;95153.41;;;30.27;31.62
79075;BME280;68476;42.710;23.388;2023-07-31T11:31:01;95153.03;;;28.19;34.67
79075;BME280;68476;42.710;23.388;2023-07-31T11:33:26;95157.44;;;28.45;34.50
79075;BME280;68476;42.710;23.388;2023-07-31T11:35:52;95141.75;;;27.53;35.36
79075;BME280;68476;42.710;23.388;2023-07-31T11:38:27;95153.28;;;28.02;35.01
79075;BME280;68476;42.710;23.388;2023-07-31T11:40:55;95152.59;;;27.92;35.05
79075;BME280;68476;42.710;23.388;2023-07-31T11:43:21;95145.38;;;31.94;29.00
79075;BME280;68476;42.710;23.388;2023-07-31T11:45:48;95137.50;;;34.19;25.63
79075;BME280;68476;42.710;23.388;2023-07-31T11:48:31;95135.41;;;28.31;35.07
79075;BME280;68476;42.710;23.388;2023-07-31T11:51:03;95145.78;;;27.19;37.58
79075;BME280;68476;42.710;23.388;2023-07-31T11:53:33;95147.66;;;27.27;37.89
79075;BME280;68476;42.710;23.388;2023-07-31T11:56:01;95136.56;;;31.26;30.48
79075;BME280;68476;42.710;23.388;2023-07-31T11:58:31;95133.50;;;33.33;27.54
79075;BME280;68476;42.710;23.388;2023-07-31T12:00:58;95120.06;;;33.61;26.86
79075;BME280;68476;42.710;23.388;2023-07-31T12:03:24;95140.78;;;33.76;25.79
79075;BME280;68476;42.710;23.388;2023-07-31T12:05:50;95122.78;;;31.67;28.94
79075;BME280;68476;42.710;23.388;2023-07-31T12:08:16;95131.06;;;31.79;28.74
79075;BME280;68476;42.710;23.388;2023-07-31T12:10:42;95132.81;;;29.72;32.54
79075;BME280;68476;42.710;23.388;2023-07-31T12:13:10;95125.38;;;33.66;26.70
79075;BME280;68476;42.710;23.388;2023-07-31T12:15:43;95119.28;;;34.86;24.54
79075;BME280;68476;42.710;23.388;2023-07-31T12:18:12;95101.28;;;33.83;26.35
79075;BME280;68476;42.710;23.388;2023-07-31T12:20:46;95106.13;;;33.00;27.26
79075;BME280;68476;42.710;23.388;2023-07-31T12:23:23;95114.25;;;30.74;31.40
79075;BME280;68476;42.710;23.388;2023-07-31T12:26:06;95129.72;;;32.81;28.83
79075;BME280;68476;42.710;23.388;2023-07-31T12:28:41;95118.53;;;28.84;34.72
79075;BME280;68476;42.710;23.388;2023-07-31T12:31:08;95122.97;;;30.88;31.05
79075;BME280;68476;42.710;23.388;2023-07-31T12:33:36;95125.59;;;31.20;30.31
79075;BME280;68476;42.710;23.388;2023-07-31T12:36:03;95105.13;;;31.93;29.06
79075;BME280;68476;42.710;23.388;2023-07-31T12:38:30;95112.00;;;30.44;31.37
79075;BME280;68476;42.710;23.388;2023-07-31T12:40:55;95108.78;;;29.90;32.61
79075;BME280;68476;42.710;23.388;2023-07-31T12:43:21;95102.75;;;31.22;29.74
79075;BME280;68476;42.710;23.388;2023-07-31T12:45:46;95103.22;;;29.26;33.19
79075;BME280;68476;42.710;23.388;2023-07-31T12:48:13;95103.72;;;28.71;34.79
79075;BME280;68476;42.710;23.388;2023-07-31T12:50:38;95097.53;;;30.06;32.49
79075;BME280;68476;42.710;23.388;2023-07-31T12:53:04;95101.47;;;28.20;35.63
79075;BME280;68476;42.710;23.388;2023-07-31T12:55:30;95093.38;;;27.65;36.68
79075;BME280;68476;42.710;23.388;2023-07-31T12:57:55;95082.72;;;27.21;37.71
79075;BME280;68476;42.710;23.388;2023-07-31T13:00:21;95086.63;;;28.60;35.13